TimeMDT,TemperatureF,Dew PointF,Humidity,Sea Level PressureIn,VisibilityMPH,Wind Direction,Wind SpeedMPH,Gust SpeedMPH,PrecipitationIn,Events,Conditions,WindDirDegrees,DateUTC
12:53 AM,64.0,55.9,75,30.02,10.0,SSE,10.4,-,N/A,,Overcast,150,2013-08-25 06:53:00
1:53 AM,63.0,57.9,84,30.06,5.0,WSW,4.6,-,0.03,Rain,Rain,240,2013-08-25 07:53:00
2:53 AM,61.0,57.9,90,30.06,10.0,East,4.6,-,0.02,,Overcast,80,2013-08-25 08:53:00
3:53 AM,61.0,59.0,93,30.08,10.0,WSW,3.5,-,N/A,,Overcast,240,2013-08-25 09:53:00
4:53 AM,61.0,59.0,93,30.10,10.0,Calm,Calm,-,N/A,,Overcast,0,2013-08-25 10:53:00
5:53 AM,60.1,59.0,96,30.11,10.0,Calm,Calm,-,N/A,,Overcast,0,2013-08-25 11:53:00
6:53 AM,61.0,57.9,90,30.10,10.0,Calm,Calm,-,N/A,,Partly Cloudy,0,2013-08-25 12:53:00
7:53 AM,61.0,57.9,90,30.12,10.0,Calm,Calm,-,N/A,,Mostly Cloudy,0,2013-08-25 13:53:00
8:53 AM,63.0,57.9,84,30.12,10.0,SE,3.5,-,N/A,,Scattered Clouds,140,2013-08-25 14:53:00
9:53 AM,66.0,57.0,73,30.13,10.0,Calm,Calm,-,N/A,,Partly Cloudy,0,2013-08-25 15:53:00
10:53 AM,66.0,59.0,78,30.14,10.0,West,3.5,-,0.00,Rain,Light Rain,270,2013-08-25 16:53:00
11:53 AM,66.9,55.9,68,30.14,10.0,Calm,Calm,-,0.00,,Overcast,0,2013-08-25 17:53:00
12:53 PM,70.0,57.0,63,30.13,10.0,North,3.5,-,N/A,,Overcast,350,2013-08-25 18:53:00
1:53 PM,68.0,60.1,76,30.13,10.0,NNW,6.9,-,0.01,Rain,Light Rain,340,2013-08-25 19:53:00
2:53 PM,72.0,55.9,57,30.09,10.0,NW,10.4,-,0.00,,Partly Cloudy,320,2013-08-25 20:53:00
3:53 PM,70.0,57.0,63,30.09,10.0,WNW,9.2,-,N/A,,Overcast,290,2013-08-25 21:53:00
4:53 PM,69.1,55.9,63,30.09,10.0,WNW,6.9,-,N/A,,Overcast,300,2013-08-25 22:53:00
5:53 PM,66.0,61.0,84,30.10,10.0,NNW,6.9,-,0.00,,Overcast,340,2013-08-25 23:53:00
6:53 PM,63.0,60.1,90,30.12,10.0,North,5.8,-,0.01,,Mostly Cloudy,360,2013-08-26 00:53:00
7:53 PM,62.1,59.0,90,30.14,10.0,NNW,4.6,-,N/A,,Mostly Cloudy,340,2013-08-26 01:53:00
8:53 PM,61.0,57.9,90,30.15,10.0,NNE,6.9,-,N/A,,Mostly Cloudy,20,2013-08-26 02:53:00
9:53 PM,61.0,59.0,93,30.15,10.0,Calm,Calm,-,0.00,Rain,Light Rain,0,2013-08-26 03:53:00
10:53 PM,61.0,59.0,93,30.16,9.0,Calm,Calm,-,0.01,Rain,Light Rain,0,2013-08-26 04:53:00
11:53 PM,61.0,60.1,97,30.17,8.0,Calm,Calm,-,0.03,Rain,Light Rain,0,2013-08-26 05:53:00